Carson, NM (87517)

6:12 AM MDT on October 21, 2014 (GMT -0600)
Taos Municipal | Change Station
CLOSE
Current Station
Airport
Location: Taos,
Elevation: 7090 ft
Nearby Weather Stations

Elev 7090 ft 36.46 °N, 105.67 °W | Updated 17 minutes ago

Partly Cloudy
Partly Cloudy
36 °F
Feels Like 31 °F
N
6
Wind Variable Wind from NE

Today
High -- | Low -- °F
--% Chance of Precip.
Yesterday
High -- | Low -- °F
Precip. -- in
7:15 AM 6:19 PM
Waning Crescent, 6% visible
Pressure 30.23 in
Visibility 10.0 miles
Clouds Clear
Windchill 31 °F
Dew Point 30 °F
Humidity 81%
Rainfall 0.00 in
Snow Depth 1 in
UV 0 out of 12
Pollen 2.90 out of 12
Air Quality Not available.
Flu Activity Sporadic
METAR KSKX 211155Z AUTO 04005KT 10SM CLR 02/M01 A3023 RMK AO1 70001 10090 20020 57007

More Conditions Fewer Conditions

Pressure 30.23 in
Visibility 10.0 miles
Clouds Clear
Windchill 31 °F
Dew Point 30 °F
Humidity 81%
Rainfall 0.00 in
Snow Depth 1 in
UV 0 out of 12
Pollen 2.90 out of 12
Air Quality Not available.
Flu Activity Sporadic
METAR KSKX 211155Z AUTO 04005KT 10SM CLR 02/M01 A3023 RMK AO1 70001 10090 20020 57007

More Conditions Fewer Conditions

10-Day Weather Forecast

Almanac

Astronomy

Oct. 21, 2014 Rise Set
Actual Time 7:15 AM MDT 6:19 PM MDT
Civil Twilight 6:49 AM MDT 6:45 PM MDT
Nautical Twilight 6:19 AM MDT 7:15 PM MDT
Astronomical Twilight 5:49 AM MDT 7:45 PM MDT
Moon 5:06 AM MDT 5:11 PM MDT
Length of Visible Light 11h 55m
Length of Day
11h 03m
Tomorrow will be 2m 10s shorter.
Waning Crescent, 6% of the Moon is Illuminated
Today
Waning Crescent
Oct 23
New
Oct 30
First Quarter
Nov 6
Full
Nov 14
Last Quarter

Today's Extremes

State Highs State Lows

Community

WunderPhotos

Upload Photos

1,763,643 photos uploaded!

Nearby

Snow Depth

Station Depth Elevation
Gallegos Peak 1 in 9800 ft
Bateman 0 in 9300 ft
Red River Pass #2 0 in 9850 ft
Hopewell 0 in 10000 ft
Elk Cabin 0 in 8210 ft

Earthquake Activity

City Distance Mag. Time & Date
Trinidad, Colorado 67 miles 2.7 10:33 PM MDT
2014-10-20
Trinidad, Colorado 78 miles 2.5 10:01 PM MDT
2014-10-19
Minimum magnitude displayed is 2.5.

Coastal Water Temperatures

Place Temperature
No Stations Reporting

Nearby Weather Stations